createdAt,value
2023-03-17T00:00:18.964Z,101151.32
2023-03-17T00:03:46.853Z,101157.34
2023-03-17T00:07:14.901Z,101159.67
2023-03-17T00:10:42.980Z,101154.81
2023-03-17T00:14:11.031Z,101158.70
2023-03-17T00:17:39.412Z,101160.58
2023-03-17T00:21:07.299Z,101158.12
2023-03-17T00:24:35.297Z,101153.34
2023-03-17T00:28:03.098Z,101154.04
2023-03-17T00:31:32.043Z,101155.30
2023-03-17T00:34:59.894Z,101153.13
2023-03-17T00:38:27.857Z,101152.80
2023-03-17T00:41:55.788Z,101154.73
2023-03-17T00:45:23.653Z,101149.11
2023-03-17T00:48:13.873Z,101145.81
2023-03-17T00:51:41.800Z,101141.27
2023-03-17T00:55:10.183Z,101140.73
2023-03-17T00:58:39.304Z,101141.98
2023-03-17T01:02:07.360Z,101143.11
2023-03-17T01:05:35.459Z,101144.80
2023-03-17T01:09:03.253Z,101144.82
2023-03-17T01:12:12.337Z,101149.88
2023-03-17T01:15:40.155Z,101147.80
2023-03-17T01:19:08.039Z,101146.73
2023-03-17T01:22:36.052Z,101156.61
2023-03-17T01:26:04.123Z,101151.05
2023-03-17T01:29:33.091Z,101157.41
2023-03-17T01:33:01.815Z,101156.52
2023-03-17T01:36:29.548Z,101155.73
2023-03-17T01:39:57.484Z,101153.97
2023-03-17T01:43:25.449Z,101152.08
2023-03-17T01:46:53.394Z,101154.14
2023-03-17T01:50:21.232Z,101152.80
2023-03-17T01:53:49.322Z,101152.49
2023-03-17T01:57:17.168Z,101148.91
2023-03-17T02:00:45.170Z,101151.48
2023-03-17T02:03:54.196Z,101149.67
2023-03-17T02:07:22.463Z,101148.23
2023-03-17T02:10:50.332Z,101152.20
2023-03-17T02:14:18.229Z,101148.39
2023-03-17T02:17:46.086Z,101151.82
2023-03-17T02:20:46.374Z,101150.07
2023-03-17T02:24:14.408Z,101145.05
2023-03-17T02:27:24.144Z,101145.60
2023-03-17T02:30:53.930Z,101147.83
2023-03-17T02:34:21.641Z,101148.48
2023-03-17T02:37:49.317Z,101147.66
2023-03-17T02:40:57.266Z,101143.66
2023-03-17T02:44:25.382Z,101152.67
2023-03-17T02:47:34.232Z,101157.29
2023-03-17T02:51:02.317Z,101150.71
2023-03-17T02:54:10.533Z,101151.10
2023-03-17T02:57:38.413Z,101150.31
2023-03-17T03:01:06.308Z,101157.91
2023-03-17T03:04:34.168Z,101160.41
2023-03-17T03:08:03.240Z,101167.49
2023-03-17T03:10:53.636Z,101171.59
2023-03-17T03:14:21.562Z,101176.35
2023-03-17T03:17:30.364Z,101183.08
2023-03-17T03:20:58.408Z,101182.27
2023-03-17T03:24:26.202Z,101185.61
2023-03-17T03:27:54.185Z,101189.56
2023-03-17T03:31:22.093Z,101199.52
2023-03-17T03:34:50.008Z,101200.39
2023-03-17T03:38:17.769Z,101206.92
2023-03-17T03:41:45.698Z,101210.71
2023-03-17T03:45:14.073Z,101217.13
2023-03-17T03:48:42.297Z,101216.10
2023-03-17T03:52:10.201Z,101212.66
2023-03-17T03:55:38.043Z,101223.16
2023-03-17T03:59:06.151Z,101224.15
2023-03-17T04:02:34.029Z,101226.50
2023-03-17T04:06:01.922Z,101220.13
2023-03-17T04:09:29.962Z,101221.64
2023-03-17T04:12:58.865Z,101221.83
2023-03-17T04:16:26.695Z,101230.21
2023-03-17T04:19:35.585Z,101221.37
2023-03-17T04:23:03.585Z,101225.25
2023-03-17T04:26:31.332Z,101228.31
2023-03-17T04:29:40.479Z,101232.41
2023-03-17T04:33:08.393Z,101236.23
2023-03-17T04:36:36.103Z,101234.64
2023-03-17T04:40:03.985Z,101232.20
2023-03-17T04:43:32.446Z,101229.55
2023-03-17T04:47:00.353Z,101234.56
2023-03-17T04:50:28.285Z,101232.27
2023-03-17T04:53:56.114Z,101239.84
2023-03-17T04:57:25.057Z,101245.55
2023-03-17T05:00:33.775Z,101243.83
2023-03-17T05:04:02.803Z,101245.25
2023-03-17T05:07:11.457Z,101243.30
2023-03-17T05:10:20.338Z,101247.69
2023-03-17T05:13:48.144Z,101250.83
2023-03-17T05:17:16.864Z,101253.82
2023-03-17T05:20:25.177Z,101251.43
2023-03-17T05:23:54.970Z,101247.30
2023-03-17T05:27:22.059Z,101251.42
2023-03-17T05:30:49.961Z,101254.82
2023-03-17T05:34:17.809Z,101255.52
2023-03-17T05:37:45.746Z,101258.05
2023-03-17T05:41:13.714Z,101262.86
2023-03-17T05:44:21.879Z,101263.35
2023-03-17T05:47:49.614Z,101258.23
2023-03-17T05:51:17.408Z,101259.05
2023-03-17T05:54:45.935Z,101256.26
2023-03-17T05:58:13.766Z,101259.02
2023-03-17T06:01:41.666Z,101264.66
2023-03-17T06:05:09.926Z,101266.27
2023-03-17T06:08:37.726Z,101269.35
2023-03-17T06:12:05.606Z,101275.01
2023-03-17T06:15:35.021Z,101273.36
2023-03-17T06:18:43.408Z,101277.73
2023-03-17T06:22:11.322Z,101278.69
2023-03-17T06:25:39.209Z,101286.35
2023-03-17T06:28:47.303Z,101293.79
2023-03-17T06:31:36.411Z,101290.48
2023-03-17T06:34:26.040Z,101292.91
2023-03-17T06:37:54.039Z,101289.78
2023-03-17T06:41:21.805Z,101296.35
2023-03-17T06:44:49.665Z,101299.56
2023-03-17T06:48:17.686Z,101303.07
2023-03-17T06:51:45.717Z,101300.48
2023-03-17T06:55:13.473Z,101294.96
2023-03-17T06:58:41.241Z,101308.10
2023-03-17T07:02:09.232Z,101315.61
2023-03-17T07:05:37.215Z,101322.19
2023-03-17T07:09:05.382Z,101325.92
2023-03-17T07:12:33.394Z,101326.89
2023-03-17T07:16:01.644Z,101327.34
2023-03-17T07:19:29.627Z,101330.65
2023-03-17T07:22:57.619Z,101334.83
2023-03-17T07:26:26.010Z,101337.09
2023-03-17T07:29:53.950Z,101335.27
2023-03-17T07:33:21.886Z,101344.09
2023-03-17T07:36:49.941Z,101337.35
2023-03-17T07:40:18.050Z,101335.30
2023-03-17T07:43:45.931Z,101331.73
2023-03-17T07:47:13.790Z,101340.11
2023-03-17T07:50:41.857Z,101345.36
2023-03-17T07:54:09.882Z,101342.94
2023-03-17T07:57:17.991Z,101343.55
2023-03-17T08:00:45.857Z,101341.27
2023-03-17T08:04:13.842Z,101340.34
2023-03-17T08:07:41.593Z,101336.20
2023-03-17T08:11:09.938Z,101330.95
2023-03-17T08:14:38.010Z,101326.48
2023-03-17T08:18:05.937Z,101314.07
2023-03-17T08:21:33.887Z,101312.38
2023-03-17T08:25:01.892Z,101318.60
2023-03-17T08:28:30.020Z,101317.45
2023-03-17T08:31:58.563Z,101304.42
2023-03-17T08:35:06.376Z,101296.98
2023-03-17T08:38:34.603Z,101300.29
2023-03-17T08:42:02.703Z,101304.27
2023-03-17T08:45:30.960Z,101306.01
2023-03-17T08:48:58.871Z,101306.09
2023-03-17T08:52:26.686Z,101304.41
2023-03-17T08:55:35.543Z,101300.98
2023-03-17T08:59:03.452Z,101302.70
2023-03-17T09:02:31.244Z,101302.61
2023-03-17T09:05:59.580Z,101298.59
2023-03-17T09:09:28.267Z,101302.89
2023-03-17T09:12:57.859Z,101308.23
2023-03-17T09:16:06.875Z,101304.64
2023-03-17T09:19:35.110Z,101307.16
2023-03-17T09:23:02.989Z,101303.11
2023-03-17T09:25:52.534Z,101299.98
2023-03-17T09:29:20.566Z,101298.64
2023-03-17T09:32:11.846Z,101298.80
2023-03-17T09:34:59.582Z,101297.70
2023-03-17T09:38:27.780Z,101304.25
2023-03-17T09:41:55.501Z,101297.41
2023-03-17T09:45:23.467Z,101298.59
2023-03-17T09:48:51.500Z,101300.36
2023-03-17T09:52:20.158Z,101296.08
2023-03-17T09:55:08.549Z,101294.31
2023-03-17T09:58:36.443Z,101294.48
2023-03-17T10:02:05.094Z,101299.66
2023-03-17T10:05:34.584Z,101302.48
2023-03-17T10:08:42.575Z,101307.43
2023-03-17T10:11:33.224Z,101309.50
2023-03-17T10:14:42.566Z,101309.57
2023-03-17T10:18:11.802Z,101314.11
2023-03-17T10:21:20.150Z,101309.77
2023-03-17T10:24:48.653Z,101305.73
2023-03-17T10:28:16.558Z,101303.58
2023-03-17T10:31:44.351Z,101304.67
2023-03-17T10:35:12.502Z,101302.27
2023-03-17T10:38:40.588Z,101293.73
2023-03-17T10:41:29.282Z,101292.61
2023-03-17T10:44:57.131Z,101290.45
2023-03-17T10:48:25.186Z,101291.23
2023-03-17T10:51:14.132Z,101292.38
2023-03-17T10:54:42.078Z,101290.94
2023-03-17T10:58:10.141Z,101287.23
2023-03-17T11:01:38.082Z,101290.80
2023-03-17T11:04:47.025Z,101289.14
2023-03-17T11:08:16.042Z,101286.44
2023-03-17T11:11:43.786Z,101287.65
2023-03-17T11:15:11.586Z,101277.32
2023-03-17T11:18:39.677Z,101272.24
2023-03-17T11:22:07.463Z,101270.81
2023-03-17T11:25:36.463Z,101265.79
2023-03-17T11:29:04.910Z,101257.45
2023-03-17T11:32:32.802Z,101254.20
2023-03-17T11:36:00.805Z,101254.14
2023-03-17T11:39:11.343Z,101257.95
2023-03-17T11:42:39.316Z,101252.65
2023-03-17T11:46:07.122Z,101250.42
2023-03-17T11:49:35.121Z,101243.80
2023-03-17T11:53:03.376Z,101238.69
2023-03-17T11:56:31.364Z,101230.67
2023-03-17T11:59:39.564Z,101223.74
2023-03-17T12:03:07.720Z,101227.83
2023-03-17T12:06:35.617Z,101219.42
2023-03-17T12:10:03.635Z,101215.50
2023-03-17T12:13:31.672Z,101210.00
2023-03-17T12:16:59.925Z,101205.73
2023-03-17T12:20:28.108Z,101206.25
2023-03-17T12:23:37.756Z,101198.77
2023-03-17T12:27:05.716Z,101199.21
2023-03-17T12:30:33.895Z,101197.96
2023-03-17T12:34:01.920Z,101191.21
2023-03-17T12:37:29.900Z,101187.98
2023-03-17T12:40:57.989Z,101186.71
2023-03-17T12:44:26.590Z,101184.87
2023-03-17T12:47:54.704Z,101182.56
2023-03-17T12:51:23.203Z,101172.05
2023-03-17T12:54:31.983Z,101168.51
2023-03-17T12:57:40.582Z,101166.26
2023-03-17T13:01:08.440Z,101167.79
2023-03-17T13:04:36.362Z,101165.64
2023-03-17T13:08:04.329Z,101157.20
2023-03-17T13:11:32.245Z,101153.65
2023-03-17T13:15:00.161Z,101156.05
2023-03-17T13:17:50.172Z,101150.57
2023-03-17T13:20:58.719Z,101143.91
2023-03-17T13:24:07.162Z,101144.91
2023-03-17T13:27:15.156Z,101144.58
2023-03-17T13:30:04.709Z,101142.34
2023-03-17T13:33:34.120Z,101136.45
2023-03-17T13:36:42.961Z,101130.07
2023-03-17T13:40:11.362Z,101127.89
2023-03-17T13:43:39.237Z,101126.06
2023-03-17T13:46:10.093Z,101127.58
2023-03-17T13:49:38.242Z,101122.31
2023-03-17T13:52:26.279Z,101123.13
2023-03-17T13:55:35.073Z,101123.42
2023-03-17T13:58:24.383Z,101119.58
2023-03-17T14:01:53.248Z,101115.17
2023-03-17T14:05:21.241Z,101111.38
2023-03-17T14:07:50.404Z,101108.06
2023-03-17T14:11:19.028Z,101102.30
2023-03-17T14:14:47.417Z,101103.82
2023-03-17T14:17:56.221Z,101097.05
2023-03-17T14:20:26.030Z,101097.09
2023-03-17T14:23:34.916Z,101098.70
2023-03-17T14:27:03.259Z,101089.77
2023-03-17T14:30:20.296Z,101087.59
2023-03-17T14:33:09.630Z,101085.95
2023-03-17T14:36:37.477Z,101081.30
2023-03-17T14:40:05.395Z,101075.90
2023-03-17T14:43:34.492Z,101073.02
2023-03-17T14:46:58.441Z,101066.36
2023-03-17T14:49:47.136Z,101060.30
2023-03-17T14:53:15.045Z,101060.91
2023-03-17T14:56:43.013Z,101058.36
2023-03-17T14:59:31.843Z,101058.13
2023-03-17T15:02:59.777Z,101051.17
2023-03-17T15:05:27.971Z,101049.60
2023-03-17T15:08:56.050Z,101049.35
2023-03-17T15:11:25.171Z,101050.38
2023-03-17T15:14:53.258Z,101053.92
2023-03-17T15:18:21.344Z,101053.57
2023-03-17T15:21:32.561Z,101052.88
2023-03-17T15:24:20.688Z,101046.98
2023-03-17T15:27:48.631Z,101049.16
2023-03-17T15:30:57.026Z,101043.03
2023-03-17T15:34:24.763Z,101041.70
2023-03-17T15:37:52.541Z,101048.11
2023-03-17T15:41:20.607Z,101049.80
2023-03-17T15:44:48.503Z,101043.42
2023-03-17T15:47:58.274Z,101042.81
2023-03-17T15:51:26.243Z,101042.80
2023-03-17T15:54:54.633Z,101049.81
2023-03-17T15:58:02.771Z,101047.27
2023-03-17T16:01:31.010Z,101050.19
2023-03-17T16:04:20.467Z,101060.29
2023-03-17T16:07:29.562Z,101058.64
2023-03-17T16:10:39.835Z,101068.98
2023-03-17T16:13:48.205Z,101067.76
2023-03-17T16:16:56.814Z,101064.37
2023-03-17T16:20:24.640Z,101072.69
2023-03-17T16:23:52.721Z,101073.90
2023-03-17T16:27:21.560Z,101078.20
2023-03-17T16:30:49.744Z,101076.31
2023-03-17T16:34:17.601Z,101071.52
2023-03-17T16:37:45.761Z,101077.00
2023-03-17T16:41:13.709Z,101080.75
2023-03-17T16:44:21.599Z,101080.70
2023-03-17T16:47:31.363Z,101082.08
2023-03-17T16:50:59.275Z,101082.79
2023-03-17T16:54:27.185Z,101082.91
2023-03-17T16:57:55.320Z,101084.00
2023-03-17T17:01:23.410Z,101083.29
2023-03-17T17:04:51.236Z,101086.81
2023-03-17T17:08:19.106Z,101081.92
2023-03-17T17:11:47.068Z,101083.41
2023-03-17T17:15:14.902Z,101078.45
2023-03-17T17:18:43.001Z,101077.66
2023-03-17T17:22:11.039Z,101074.42
2023-03-17T17:25:39.065Z,101076.94
2023-03-17T17:29:07.292Z,101076.89
2023-03-17T17:32:34.979Z,101072.77
2023-03-17T17:36:03.215Z,101075.33
2023-03-17T17:39:31.024Z,101077.64
2023-03-17T17:42:58.895Z,101077.93
2023-03-17T17:46:26.696Z,101080.77
2023-03-17T17:49:35.634Z,101078.63
2023-03-17T17:53:04.675Z,101081.72
2023-03-17T17:56:33.000Z,101082.45
2023-03-17T18:00:01.174Z,101084.20
2023-03-17T18:03:31.932Z,101084.24
2023-03-17T18:06:57.696Z,101081.54
2023-03-17T18:10:25.553Z,101085.63
2023-03-17T18:13:14.750Z,101090.23
2023-03-17T18:16:42.877Z,101090.18
2023-03-17T18:19:51.482Z,101091.70
2023-03-17T18:23:00.422Z,101091.48
2023-03-17T18:26:28.513Z,101094.89
2023-03-17T18:29:56.629Z,101097.55
2023-03-17T18:33:24.889Z,101105.20
2023-03-17T18:36:52.857Z,101108.07
2023-03-17T18:40:21.128Z,101102.63
2023-03-17T18:43:48.944Z,101104.45
2023-03-17T18:47:17.438Z,101096.84
2023-03-17T18:50:46.514Z,101090.88
2023-03-17T18:54:14.674Z,101095.91
2023-03-17T18:57:23.573Z,101089.65
2023-03-17T19:00:51.630Z,101092.59
2023-03-17T19:04:19.806Z,101095.48
2023-03-17T19:07:29.001Z,101094.26
2023-03-17T19:10:57.112Z,101100.02
2023-03-17T19:14:25.508Z,101102.27
2023-03-17T19:17:53.787Z,101106.48
2023-03-17T19:21:22.231Z,101106.31
2023-03-17T19:24:50.323Z,101102.02
2023-03-17T19:28:18.316Z,101104.63
2023-03-17T19:31:48.477Z,101103.15
2023-03-17T19:35:14.319Z,101102.07
2023-03-17T19:38:24.526Z,101100.08
2023-03-17T19:41:53.144Z,101094.64
2023-03-17T19:45:21.299Z,101095.08
2023-03-17T19:48:49.280Z,101095.26
2023-03-17T19:52:17.196Z,101093.37
2023-03-17T19:55:45.329Z,101087.42
2023-03-17T19:59:13.252Z,101080.58
2023-03-17T20:02:41.281Z,101078.83
2023-03-17T20:06:10.419Z,101081.73
2023-03-17T20:09:38.314Z,101087.79
2023-03-17T20:13:07.801Z,101081.73
2023-03-17T20:16:36.781Z,101077.21
2023-03-17T20:20:04.682Z,101079.36
2023-03-17T20:23:12.988Z,101076.90
2023-03-17T20:26:40.896Z,101078.34
2023-03-17T20:30:08.876Z,101073.45
2023-03-17T20:33:37.263Z,101070.61
2023-03-17T20:37:05.347Z,101070.63
2023-03-17T20:40:33.802Z,101073.11
2023-03-17T20:44:02.292Z,101075.29
2023-03-17T20:47:30.714Z,101077.48
2023-03-17T20:50:58.978Z,101074.02
2023-03-17T20:54:26.900Z,101073.92
2023-03-17T20:57:54.864Z,101078.11
2023-03-17T21:01:23.144Z,101072.79
2023-03-17T21:04:51.164Z,101071.11
2023-03-17T21:08:19.329Z,101065.58
2023-03-17T21:11:47.318Z,101058.38
2023-03-17T21:15:15.400Z,101059.30
2023-03-17T21:18:43.642Z,101060.88
2023-03-17T21:22:11.660Z,101055.27
2023-03-17T21:25:39.671Z,101056.38
2023-03-17T21:28:49.395Z,101049.31
2023-03-17T21:32:17.786Z,101051.42
2023-03-17T21:35:45.829Z,101050.12
2023-03-17T21:39:14.516Z,101047.16
2023-03-17T21:42:42.599Z,101046.19
2023-03-17T21:46:10.590Z,101041.52
2023-03-17T21:49:38.576Z,101040.30
2023-03-17T21:53:06.479Z,101039.17
2023-03-17T21:56:34.741Z,101037.22
2023-03-17T22:00:02.894Z,101034.31
2023-03-17T22:03:30.941Z,101036.85
2023-03-17T22:06:59.138Z,101034.38
2023-03-17T22:10:27.302Z,101034.92
2023-03-17T22:13:55.289Z,101030.70
2023-03-17T22:17:04.250Z,101030.66
2023-03-17T22:20:13.160Z,101027.77
2023-03-17T22:23:41.209Z,101030.15
2023-03-17T22:27:09.370Z,101029.73
2023-03-17T22:30:37.349Z,101031.27
2023-03-17T22:34:05.783Z,101027.14
2023-03-17T22:37:33.614Z,101026.77
2023-03-17T22:41:01.559Z,101025.20
2023-03-17T22:44:29.666Z,101024.16
2023-03-17T22:47:57.610Z,101026.60
2023-03-17T22:51:25.704Z,101022.81
2023-03-17T22:54:53.664Z,101023.60
2023-03-17T22:57:42.897Z,101021.95
2023-03-17T23:01:11.048Z,101022.80
2023-03-17T23:04:38.895Z,101021.61
2023-03-17T23:08:06.866Z,101015.40
2023-03-17T23:11:23.262Z,101014.27
2023-03-17T23:14:39.470Z,101012.92
2023-03-17T23:17:36.973Z,101009.04
2023-03-17T23:21:05.050Z,101007.95
2023-03-17T23:24:13.347Z,101011.40
2023-03-17T23:27:41.399Z,101013.36
2023-03-17T23:30:50.606Z,101012.50
2023-03-17T23:33:59.190Z,101011.84
2023-03-17T23:37:27.125Z,101011.59
2023-03-17T23:40:55.032Z,101012.31
2023-03-17T23:44:22.996Z,101006.21
2023-03-17T23:47:51.103Z,101011.63
2023-03-17T23:51:19.082Z,101012.73
2023-03-17T23:54:46.960Z,101009.34
2023-03-17T23:58:15.903Z,101011.26
